Time;durP1;ratioP1;P1;durP2;ratioP2;P2;SDS_P1;SDS_P2;PMS_P1;PMS_P2;Temp;Humidity;BMP_temperature;BMP_pressure;BME280_temperature;BME280_humidity;BME280_pressure;Samples;Min_cycle;Max_cycle;Signal;HPM_P1;HPM_P2
2023/01/21 00:01:13;;;;;;;16.25;8.00;;;;;;;0.34;76.36;102295.38;4968283;28;20482;-52
2023/01/21 00:03:39;;;;;;;16.05;7.72;;;;;;;0.36;76.30;102295.41;4968587;28;20042;-54
2023/01/21 00:06:05;;;;;;;17.75;7.90;;;;;;;0.37;76.22;102299.75;4972371;28;20033;-51
2023/01/21 00:08:31;;;;;;;25.75;10.13;;;;;;;0.33;76.33;102292.78;4963461;28;20031;-51
2023/01/21 00:11:02;;;;;;;21.67;8.35;;;;;;;0.35;76.66;102298.84;4969425;28;20030;-51
2023/01/21 00:13:28;;;;;;;18.88;7.97;;;;;;;0.36;76.27;102300.59;4969930;28;20137;-55
2023/01/21 00:15:53;;;;;;;16.92;7.82;;;;;;;0.37;76.04;102298.00;4969797;28;20039;-53
2023/01/21 00:18:19;;;;;;;22.92;9.80;;;;;;;0.38;76.47;102306.66;4970993;28;20397;-53
2023/01/21 00:20:45;;;;;;;24.73;10.57;;;;;;;0.34;76.39;102305.75;4961477;28;20038;-53
2023/01/21 00:23:10;;;;;;;26.15;10.25;;;;;;;0.32;76.03;102304.84;4970087;28;20041;-53
2023/01/21 00:25:36;;;;;;;31.90;11.23;;;;;;;0.32;76.65;102307.44;4964715;28;20034;-54
2023/01/21 00:28:01;;;;;;;31.77;12.48;;;;;;;0.33;76.46;102316.09;4966201;28;20027;-53
2023/01/21 00:30:27;;;;;;;32.67;12.10;;;;;;;0.37;76.66;102315.28;4970977;28;20026;-56
2023/01/21 00:32:52;;;;;;;43.30;15.55;;;;;;;0.38;76.15;102306.66;4962171;28;20038;-53
2023/01/21 00:35:17;;;;;;;37.53;13.18;;;;;;;0.37;76.80;102316.13;4975060;28;20081;-51
2023/01/21 00:37:43;;;;;;;36.13;12.95;;;;;;;0.38;76.66;102317.03;4963670;28;20042;-51
2023/01/21 00:40:09;;;;;;;35.50;13.30;;;;;;;0.37;76.39;102310.97;4965356;28;20094;-52
2023/01/21 00:42:34;;;;;;;32.95;12.70;;;;;;;0.36;76.61;102314.41;4969201;28;20033;-53
2023/01/21 00:45:00;;;;;;;37.75;13.48;;;;;;;0.36;76.52;102313.53;4965597;28;20038;-52
2023/01/21 00:47:25;;;;;;;41.00;14.73;;;;;;;0.36;76.14;102323.91;4969212;28;20038;-51
2023/01/21 00:49:51;;;;;;;40.53;14.48;;;;;;;0.41;76.85;102317.03;4967899;28;20676;-53
2023/01/21 00:52:16;;;;;;;37.80;14.10;;;;;;;0.42;76.23;102323.94;4973538;28;20026;-53
2023/01/21 00:54:42;;;;;;;35.20;12.00;;;;;;;0.44;76.63;102330.00;4969238;28;20458;-54
2023/01/21 00:57:07;;;;;;;38.05;12.23;;;;;;;0.43;76.50;102330.88;4963267;28;20039;-54
2023/01/21 00:59:33;;;;;;;30.38;11.40;;;;;;;0.42;76.86;102329.13;4970957;28;20109;-52
2023/01/21 01:01:58;;;;;;;35.00;13.82;;;;;;;0.46;76.75;102333.50;4961372;28;20030;-53
2023/01/21 01:04:24;;;;;;;36.38;13.80;;;;;;;0.48;76.48;102334.38;4973217;28;20371;-55
2023/01/21 01:06:49;;;;;;;34.25;13.60;;;;;;;0.53;76.43;102339.59;4969605;28;20027;-52
2023/01/21 01:09:15;;;;;;;36.90;13.25;;;;;;;0.56;76.44;102344.81;4968716;28;20502;-53
2023/01/21 01:11:40;;;;;;;34.28;12.48;;;;;;;0.56;76.52;102335.31;4969248;28;20560;-53
2023/01/21 01:14:06;;;;;;;31.92;11.88;;;;;;;0.58;76.00;102338.78;4971465;28;20027;-53
2023/01/21 01:16:31;;;;;;;26.77;10.18;;;;;;;0.59;76.58;102335.34;4971055;28;20023;-51
2023/01/21 01:18:57;;;;;;;34.53;10.30;;;;;;;0.60;76.28;102334.50;4970357;28;21339;-53
2023/01/21 01:21:23;;;;;;;24.02;9.77;;;;;;;0.58;76.12;102340.53;4969036;28;20027;-54
2023/01/21 01:23:53;;;;;;;31.35;11.52;;;;;;;0.56;76.04;102339.63;4968085;28;20035;-53
2023/01/21 01:26:20;;;;;;;29.23;10.15;;;;;;;0.54;75.84;102339.59;4970558;28;20057;-53
2023/01/21 01:28:46;;;;;;;23.45;9.98;;;;;;;0.53;76.09;102337.88;4971132;28;20031;-52
2023/01/21 01:31:16;;;;;;;24.77;9.88;;;;;;;0.52;76.32;102341.34;4966866;28;20041;-52
2023/01/21 01:33:42;;;;;;;22.33;9.18;;;;;;;0.48;76.35;102354.22;4968306;28;20035;-55
2023/01/21 01:36:12;;;;;;;28.92;11.38;;;;;;;0.46;75.95;102349.03;4961071;28;20029;-53
2023/01/21 01:38:38;;;;;;;19.20;9.43;;;;;;;0.43;76.44;102349.88;4957045;28;20086;-56
2023/01/21 01:41:03;;;;;;;30.10;10.05;;;;;;;0.41;76.09;102342.94;4962457;28;20034;-54
2023/01/21 01:43:52;;;;;;;24.33;10.32;;;;;;;0.40;76.44;102343.78;4965228;28;20134;-52
2023/01/21 01:46:18;;;;;;;20.63;9.27;;;;;;;0.40;76.37;102351.53;4966103;28;20114;-53
2023/01/21 01:48:47;;;;;;;25.48;10.93;;;;;;;0.38;76.81;102353.28;4967047;28;20122;-52
2023/01/21 01:51:17;;;;;;;23.02;8.93;;;;;;;0.36;76.34;102358.41;4966249;28;20039;-52
2023/01/21 01:53:44;;;;;;;23.45;9.40;;;;;;;0.35;76.42;102351.50;4965756;28;20490;-54
2023/01/21 01:56:11;;;;;;;24.77;9.40;;;;;;;0.33;76.79;102347.16;4965847;28;20047;-52
2023/01/21 01:58:37;;;;;;;20.52;8.80;;;;;;;0.34;76.74;102354.09;4957700;28;20039;-52
2023/01/21 02:01:03;;;;;;;19.50;8.88;;;;;;;0.34;76.18;102354.09;4962647;28;20031;-51
2023/01/21 02:03:49;;;;;;;20.10;9.25;;;;;;;0.35;76.85;102353.25;4959937;28;20038;-50
2023/01/21 02:06:16;;;;;;;18.40;8.63;;;;;;;0.33;76.45;102355.78;4966019;28;20085;-51
2023/01/21 02:08:44;;;;;;;16.50;8.15;;;;;;;0.32;76.69;102359.22;4970435;28;20058;-51
2023/01/21 02:11:15;;;;;;;17.25;8.95;;;;;;;0.32;76.83;102355.78;4964053;28;20097;-51
2023/01/21 02:13:44;;;;;;;21.30;8.82;;;;;;;0.29;76.51;102365.25;4971340;28;20037;-53
2023/01/21 02:16:16;;;;;;;18.33;8.93;;;;;;;0.29;76.52;102367.84;4970039;28;20090;-51
2023/01/21 02:19:01;;;;;;;21.33;9.23;;;;;;;0.28;76.64;102363.50;4964675;28;20042;-54
2023/01/21 02:21:53;;;;;;;20.08;8.65;;;;;;;0.30;76.48;102364.41;4969369;28;20069;-54
2023/01/21 02:24:43;;;;;;;21.77;8.23;;;;;;;0.31;76.91;102362.66;4970737;28;20035;-51
2023/01/21 02:27:35;;;;;;;19.55;9.35;;;;;;;0.30;76.18;102361.81;4965240;28;20022;-50
2023/01/21 02:30:32;;;;;;;18.40;7.57;;;;;;;0.30;76.45;102372.19;4961126;28;20061;-52
2023/01/21 02:33:16;;;;;;;21.45;8.18;;;;;;;0.26;77.09;102375.56;4965319;28;20039;-54
2023/01/21 02:35:53;;;;;;;18.60;9.18;;;;;;;0.26;76.51;102380.75;4961450;28;20062;-54
2023/01/21 02:38:34;;;;;;;16.20;8.52;;;;;;;0.26;77.16;102383.34;4962181;28;20027;-55
2023/01/21 02:41:15;;;;;;;16.87;7.63;;;;;;;0.26;77.05;102378.16;4961716;28;20027;-53
2023/01/21 02:44:03;;;;;;;22.17;9.63;;;;;;;0.24;76.64;102377.28;4964511;28;20413;-53
2023/01/21 02:46:49;;;;;;;19.88;7.85;;;;;;;0.21;77.01;102385.03;4964906;28;20027;-52
2023/01/21 02:49:28;;;;;;;18.83;8.43;;;;;;;0.22;76.73;102394.53;4961768;28;20031;-54
2023/01/21 02:51:54;;;;;;;17.85;7.72;;;;;;;0.22;77.33;102389.34;4967138;28;20039;-53
2023/01/21 02:54:37;;;;;;;24.27;9.00;;;;;;;0.26;76.99;102396.28;4961746;28;20035;-53
2023/01/21 02:57:11;;;;;;;16.83;7.25;;;;;;;0.28;77.07;102397.19;4963382;28;20034;-53
2023/01/21 02:59:39;;;;;;;19.20;8.18;;;;;;;0.28;76.58;102389.41;4961582;28;20528;-55
2023/01/21 03:02:17;;;;;;;22.23;9.88;;;;;;;0.30;76.57;102390.31;4961553;28;20036;-51
2023/01/21 03:04:55;;;;;;;18.67;7.40;;;;;;;0.30;76.89;102405.84;4971198;28;20023;-52
2023/01/21 03:07:32;;;;;;;21.33;8.48;;;;;;;0.29;76.52;102401.50;4964904;28;20026;-51
2023/01/21 03:10:11;;;;;;;19.98;8.30;;;;;;;0.26;76.84;102398.03;4968181;28;20030;-52
2023/01/21 03:12:43;;;;;;;22.33;8.40;;;;;;;0.25;76.71;102396.28;4969272;28;20168;-53
2023/01/21 03:18:20;;;;;;;16.75;7.57;;;;;;;0.28;76.43;102404.09;4963745;28;20183;-54
2023/01/21 03:20:55;;;;;;;19.85;8.48;;;;;;;0.26;76.90;102404.06;4969119;28;20031;-53
2023/01/21 03:23:39;;;;;;;20.70;8.73;;;;;;;0.21;76.74;102400.56;4968009;28;20054;-53
2023/01/21 03:26:08;;;;;;;16.63;7.90;;;;;;;0.26;77.01;102403.19;4968455;28;20034;-54
2023/01/21 03:28:38;;;;;;;16.08;8.85;;;;;;;0.25;77.50;102407.50;4969009;28;20045;-51
2023/01/21 03:31:09;;;;;;;21.33;9.18;;;;;;;0.24;77.14;102397.13;4971746;28;20406;-50
2023/01/21 03:33:39;;;;;;;22.73;11.15;;;;;;;0.24;77.47;102394.53;4958687;28;20034;-51
2023/01/21 03:36:15;;;;;;;19.48;8.77;;;;;;;0.22;77.12;102394.53;4965648;28;20042;-52
2023/01/21 03:38:46;;;;;;;20.05;8.75;;;;;;;0.18;76.98;102392.75;4964963;28;20881;-54
2023/01/21 03:41:25;;;;;;;24.88;10.02;;;;;;;0.09;77.67;102382.25;4967165;28;20030;-50
2023/01/21 03:43:50;;;;;;;22.65;9.82;;;;;;;0.03;78.11;102384.78;4968708;28;20058;-52
2023/01/21 03:46:25;;;;;;;20.30;9.60;;;;;;;0.01;77.89;102389.06;4962848;28;20118;-52
2023/01/21 03:49:03;;;;;;;20.75;9.75;;;;;;;-0.01;78.18;102397.69;4966884;28;20022;-52
2023/01/21 03:51:35;;;;;;;23.85;8.38;;;;;;;0.01;77.87;102389.06;4964135;28;20549;-53
2023/01/21 03:54:00;;;;;;;23.65;8.90;;;;;;;-0.01;78.76;102397.69;4966266;28;20388;-55
2023/01/21 03:56:26;;;;;;;21.02;8.70;;;;;;;0.03;78.56;102408.09;4969793;28;20042;-52
2023/01/21 03:58:52;;;;;;;23.60;9.43;;;;;;;0.06;78.56;102414.16;4968050;28;20120;-52
2023/01/21 04:01:17;;;;;;;17.83;8.65;;;;;;;0.09;78.09;102415.91;4967307;28;20160;-53
2023/01/21 04:03:44;;;;;;;22.48;9.38;;;;;;;0.11;77.98;102416.81;4969371;28;20066;-50
2023/01/21 04:06:17;;;;;;;18.60;8.40;;;;;;;0.12;78.30;102410.78;4972710;28;20039;-54
2023/01/21 04:08:43;;;;;;;16.20;8.32;;;;;;;0.13;77.91;102409.94;4969682;28;20035;-51
2023/01/21 04:11:08;;;;;;;28.05;9.45;;;;;;;0.16;77.85;102409.97;4964980;28;20043;-53
2023/01/21 04:13:34;;;;;;;24.73;10.10;;;;;;;0.17;77.93;102406.53;4969326;28;20081;-52
2023/01/21 04:16:00;;;;;;;23.45;9.80;;;;;;;0.14;78.74;102406.50;4965757;28;20035;-52
2023/01/21 04:18:25;;;;;;;24.60;8.82;;;;;;;0.17;77.89;102405.66;4968230;28;20066;-53
2023/01/21 04:20:51;;;;;;;19.80;8.63;;;;;;;0.17;78.36;102408.25;4970661;28;20059;-53
2023/01/21 04:23:16;;;;;;;23.58;9.43;;;;;;;0.20;78.60;102411.78;4971326;28;20027;-54
2023/01/21 04:25:42;;;;;;;25.40;10.32;;;;;;;0.21;78.25;102417.81;4971627;28;20039;-52
2023/01/21 04:28:07;;;;;;;20.42;9.38;;;;;;;0.24;78.62;102420.44;4959007;28;20045;-54
2023/01/21 04:30:33;;;;;;;25.63;10.43;;;;;;;0.28;78.05;102420.47;4968409;28;20023;-54
2023/01/21 04:32:58;;;;;;;16.50;8.50;;;;;;;0.27;78.56;102425.66;4969915;28;20038;-54
2023/01/21 04:35:23;;;;;;;29.30;12.13;;;;;;;0.28;78.82;102441.19;4967610;28;20038;-52
2023/01/21 04:37:49;;;;;;;31.92;12.77;;;;;;;0.30;78.94;102436.91;4966040;28;20045;-52
2023/01/21 04:40:15;;;;;;;31.42;12.38;;;;;;;0.34;79.30;102439.53;4966157;28;20037;-51
2023/01/21 04:42:43;;;;;;;28.92;12.18;;;;;;;0.34;79.25;102439.53;4965627;28;20037;-50
2023/01/21 04:45:09;;;;;;;29.20;14.05;;;;;;;0.34;79.19;102442.13;4962413;28;20695;-52
2023/01/21 04:47:35;;;;;;;25.90;9.57;;;;;;;0.31;78.91;102445.53;4972528;28;20129;-55
2023/01/21 04:50:03;;;;;;;32.25;12.85;;;;;;;0.35;78.64;102447.31;4971244;28;20642;-53
2023/01/21 04:52:29;;;;;;;29.83;13.77;;;;;;;0.33;79.48;102449.03;4968729;28;20035;-51
2023/01/21 04:54:54;;;;;;;29.35;13.15;;;;;;;0.34;79.30;102448.16;4967352;28;20053;-52
2023/01/21 04:57:20;;;;;;;23.60;11.70;;;;;;;0.36;79.02;102456.84;4967813;28;20081;-54
2023/01/21 04:59:45;;;;;;;27.42;12.07;;;;;;;0.39;78.84;102453.41;4969091;28;20039;-51
2023/01/21 05:02:11;;;;;;;26.33;11.98;;;;;;;0.42;78.68;102458.63;4969426;28;20106;-53
2023/01/21 05:04:36;;;;;;;25.48;13.52;;;;;;;0.45;78.83;102464.69;4972582;28;20026;-51
2023/01/21 05:07:02;;;;;;;21.77;10.48;;;;;;;0.40;78.37;102461.22;4969743;28;20660;-52
2023/01/21 05:09:27;;;;;;;27.50;12.55;;;;;;;0.43;78.65;102473.31;4964159;28;20076;-51
2023/01/21 05:11:53;;;;;;;27.58;13.82;;;;;;;0.43;78.94;102483.69;4967836;28;20081;-50
2023/01/21 05:14:18;;;;;;;24.48;11.88;;;;;;;0.47;78.73;102488.06;4966152;28;20394;-54
2023/01/21 05:16:43;;;;;;;29.48;13.75;;;;;;;0.50;78.45;102492.38;4963817;28;21363;-52
2023/01/21 05:19:09;;;;;;;31.27;12.73;;;;;;;0.51;78.56;102488.94;4970579;28;20414;-54
2023/01/21 05:21:34;;;;;;;27.90;12.98;;;;;;;0.52;78.13;102501.94;4970115;28;20030;-52
2023/01/21 05:24:01;;;;;;;22.27;11.32;;;;;;;0.52;77.93;102509.72;4968508;28;20385;-53
2023/01/21 05:26:26;;;;;;;27.13;12.10;;;;;;;0.50;77.74;102503.63;4969401;28;20116;-54
2023/01/21 05:28:52;;;;;;;28.13;12.23;;;;;;;0.50;77.82;102508.81;4972764;28;20335;-52
2023/01/21 05:31:17;;;;;;;26.02;12.80;;;;;;;0.51;77.40;102505.38;4965932;28;20042;-52
2023/01/21 05:33:44;;;;;;;20.55;11.77;;;;;;;0.50;77.39;102502.75;4970667;28;20050;-52
2023/01/21 05:36:10;;;;;;;29.23;13.02;;;;;;;0.40;77.54;102496.56;4970818;28;20042;-51
2023/01/21 05:38:36;;;;;;;31.13;13.75;;;;;;;0.42;77.29;102500.06;4971134;28;20030;-54
2023/01/21 05:41:03;;;;;;;26.98;12.73;;;;;;;0.38;77.32;102504.34;4967806;28;20051;-55
2023/01/21 05:43:29;;;;;;;30.10;13.50;;;;;;;0.28;77.17;102508.53;4971144;28;20034;-51
2023/01/21 05:45:54;;;;;;;28.80;13.70;;;;;;;0.25;77.69;102515.38;4966730;28;20030;-51
2023/01/21 05:48:20;;;;;;;32.05;14.10;;;;;;;0.17;77.58;102525.63;4961279;28;20039;-51
2023/01/21 05:50:46;;;;;;;30.77;13.43;;;;;;;0.17;77.75;102520.47;4967935;28;20030;-52
2023/01/21 05:53:12;;;;;;;27.25;12.73;;;;;;;0.14;77.99;102517.81;4963338;28;20031;-53
2023/01/21 05:55:38;;;;;;;32.83;13.82;;;;;;;0.15;78.09;102522.16;4954305;28;20069;-55
2023/01/21 05:58:04;;;;;;;32.83;13.80;;;;;;;0.16;78.09;102523.91;4963030;28;20031;-53
2023/01/21 06:00:30;;;;;;;41.20;16.77;;;;;;;0.08;77.72;102520.31;4953071;28;20041;-52
2023/01/21 06:02:55;;;;;;;38.05;13.07;;;;;;;0.11;77.05;102526.41;4953427;28;20111;-52
2023/01/21 06:05:21;;;;;;;29.63;13.70;;;;;;;0.11;77.81;102538.47;4957066;28;20626;-53
2023/01/21 06:07:46;;;;;;;28.40;13.40;;;;;;;0.10;77.68;102535.03;4965259;28;20486;-54
2023/01/21 06:10:11;;;;;;;31.98;13.35;;;;;;;0.13;77.31;102536.78;4960749;28;20145;-53
2023/01/21 06:12:37;;;;;;;30.27;14.25;;;;;;;0.12;76.94;102548.00;4968512;28;20027;-51
2023/01/21 06:15:03;;;;;;;27.55;12.73;;;;;;;0.11;76.92;102546.25;4969493;28;20034;-52
2023/01/21 06:17:28;;;;;;;20.45;10.25;;;;;;;0.06;76.95;102548.78;4971942;28;20027;-51
2023/01/21 06:19:54;;;;;;;12.55;5.88;;;;;;;-0.12;77.51;102549.38;4966140;28;23860;-51
2023/01/21 06:22:19;;;;;;;27.80;12.00;;;;;;;-0.21;77.42;102557.84;4965548;28;20015;-52
2023/01/21 06:24:45;;;;;;;31.83;13.68;;;;;;;-0.31;77.51;102551.66;4964168;28;20031;-52
2023/01/21 06:27:11;;;;;;;29.92;12.98;;;;;;;-0.37;78.15;102551.53;4965186;28;20114;-53
2023/01/21 06:29:36;;;;;;;33.00;15.43;;;;;;;-0.37;78.56;102558.44;4969216;28;20034;-51
2023/01/21 06:32:02;;;;;;;29.52;13.95;;;;;;;-0.38;78.45;102551.50;4966804;28;20035;-53
2023/01/21 06:34:28;;;;;;;31.20;14.95;;;;;;;-0.41;78.42;102549.75;4969210;28;20034;-52
2023/01/21 06:36:53;;;;;;;32.00;13.75;;;;;;;-0.42;78.13;102557.47;4970564;28;20046;-51
2023/01/21 06:39:18;;;;;;;33.35;14.00;;;;;;;-0.40;78.70;102559.25;4966023;28;20082;-55
2023/01/21 06:41:44;;;;;;;25.50;12.73;;;;;;;-0.42;78.42;102550.59;4974103;28;20029;-50
2023/01/21 06:44:09;;;;;;;30.17;12.10;;;;;;;-0.42;78.46;102550.59;4972192;28;20054;-52
2023/01/21 06:46:35;;;;;;;28.83;12.82;;;;;;;-0.47;78.45;102557.41;4970798;28;20117;-53
2023/01/21 06:49:01;;;;;;;18.42;9.13;;;;;;;-0.56;78.77;102557.25;4971391;28;20027;-51
2023/01/21 06:51:26;;;;;;;25.35;13.43;;;;;;;-0.63;78.88;102551.94;4968582;28;20077;-52
2023/01/21 06:53:52;;;;;;;29.10;14.13;;;;;;;-0.68;79.00;102552.72;4972719;28;20473;-53
2023/01/21 06:56:17;;;;;;;21.55;9.98;;;;;;;-0.70;79.26;102546.63;4973544;28;20033;-52
2023/01/21 06:58:43;;;;;;;28.98;13.63;;;;;;;-0.72;79.29;102556.97;4976784;28;20037;-52
2023/01/21 07:01:08;;;;;;;26.90;12.45;;;;;;;-0.72;79.57;102551.78;4975489;28;20095;-51
2023/01/21 07:03:34;;;;;;;30.67;13.90;;;;;;;-0.73;79.04;102544.00;4970938;28;20089;-51
2023/01/21 07:05:59;;;;;;;29.05;13.93;;;;;;;-0.74;78.83;102548.31;4973953;28;20035;-53
2023/01/21 07:08:25;;;;;;;29.33;14.60;;;;;;;-0.74;78.92;102543.13;4976574;28;20032;-51
2023/01/21 07:10:50;;;;;;;30.05;13.15;;;;;;;-0.73;78.72;102544.00;4971591;28;20423;-53
2023/01/21 07:13:16;;;;;;;27.83;12.68;;;;;;;-0.74;79.16;102543.13;4973243;28;20437;-52
2023/01/21 07:15:41;;;;;;;24.33;12.77;;;;;;;-0.72;79.13;102543.16;5017145;22;20042;-56
2023/01/21 07:18:06;;;;;;;27.27;12.23;;;;;;;-0.69;78.99;102550.97;5009331;28;20028;-56
2023/01/21 07:20:32;;;;;;;43.28;16.90;;;;;;;-0.69;79.51;102557.03;5006314;28;20037;-54
2023/01/21 07:22:58;;;;;;;26.73;12.52;;;;;;;-0.66;79.45;102553.63;5006549;28;20040;-58
2023/01/21 07:25:23;;;;;;;25.67;11.52;;;;;;;-0.64;79.46;102560.56;5006326;28;20467;-57
2023/01/21 07:27:48;;;;;;;28.38;13.18;;;;;;;-0.59;79.26;102562.34;5004275;28;20042;-55
2023/01/21 07:30:17;;;;;;;27.00;12.77;;;;;;;-0.54;79.15;102560.75;5001807;28;20029;-59
2023/01/21 07:32:43;;;;;;;24.13;13.43;;;;;;;-0.50;79.28;102557.34;5004525;28;20112;-57
2023/01/21 07:35:09;;;;;;;29.58;12.68;;;;;;;-0.46;78.92;102564.31;5010366;28;20074;-58
2023/01/21 07:37:34;;;;;;;32.10;13.13;;;;;;;-0.42;79.63;102557.47;5011127;28;20034;-55
2023/01/21 07:39:59;;;;;;;26.40;12.88;;;;;;;-0.37;79.19;102569.63;5011943;28;20501;-55
2023/01/21 07:42:25;;;;;;;26.75;13.00;;;;;;;-0.33;78.72;102560.22;5009484;28;21291;-54
2023/01/21 07:44:51;;;;;;;28.65;12.73;;;;;;;-0.29;79.00;102555.97;5010629;28;20036;-59
2023/01/21 07:47:16;;;;;;;29.10;11.48;;;;;;;-0.26;78.80;102549.13;5009097;28;20037;-55
2023/01/21 07:49:41;;;;;;;27.67;11.18;;;;;;;-0.23;78.46;102545.75;5009376;28;20439;-57
2023/01/21 07:52:07;;;;;;;25.20;11.85;;;;;;;-0.20;78.86;102549.25;5010983;28;20037;-54
2023/01/21 07:54:32;;;;;;;33.75;12.68;;;;;;;-0.18;79.39;102551.84;5010217;28;20408;-54
2023/01/21 07:56:58;;;;;;;26.00;12.93;;;;;;;-0.12;78.68;102538.13;5006670;28;20451;-56
2023/01/21 07:59:23;;;;;;;30.80;14.10;;;;;;;-0.08;78.77;102539.94;5013204;28;20481;-58
2023/01/21 08:01:49;;;;;;;23.52;11.82;;;;;;;-0.03;79.23;102535.69;5010154;28;20385;-57
2023/01/21 08:04:14;;;;;;;26.30;11.93;;;;;;;0.02;79.09;102530.59;5012370;28;20042;-57
2023/01/21 08:06:40;;;;;;;25.63;12.25;;;;;;;0.04;79.11;102523.72;5013613;28;20032;-56
2023/01/21 08:09:06;;;;;;;24.30;11.45;;;;;;;0.09;79.17;102519.47;5011684;28;20129;-56
2023/01/21 08:11:31;;;;;;;19.67;9.15;;;;;;;0.13;79.00;102531.59;5012699;28;20072;-57
2023/01/21 08:13:57;;;;;;;26.52;11.80;;;;;;;0.19;78.60;102523.94;5010325;28;20041;-57
2023/01/21 08:16:22;;;;;;;26.35;11.48;;;;;;;0.28;78.04;102524.06;5007663;28;20041;-55
2023/01/21 08:18:48;;;;;;;29.15;11.70;;;;;;;0.34;77.85;102528.44;5009727;28;20025;-54
2023/01/21 08:21:13;;;;;;;21.58;10.95;;;;;;;0.39;77.96;102516.44;5005672;28;20042;-56
2023/01/21 08:23:39;;;;;;;23.23;11.95;;;;;;;0.44;77.67;102519.09;5007611;28;20105;-56
2023/01/21 08:26:05;;;;;;;24.02;12.57;;;;;;;0.49;77.86;102516.56;5011516;28;20033;-54
2023/01/21 08:28:31;;;;;;;30.33;14.07;;;;;;;0.51;77.27;102518.34;5010441;28;20040;-54
2023/01/21 08:31:05;;;;;;;37.88;16.15;;;;;;;0.50;77.35;102511.41;5007571;28;20034;-56
2023/01/21 08:33:31;;;;;;;38.80;16.63;;;;;;;0.53;77.30;102508.84;5012123;28;20037;-56
2023/01/21 08:36:01;;;;;;;37.58;16.48;;;;;;;0.57;77.71;102518.41;5008144;28;20095;-54
2023/01/21 08:38:27;;;;;;;33.95;14.45;;;;;;;0.59;77.30;102518.44;5002144;28;20021;-54
2023/01/21 08:40:52;;;;;;;37.42;16.20;;;;;;;0.64;77.43;102526.25;5011650;28;20043;-54
2023/01/21 08:43:18;;;;;;;41.03;18.25;;;;;;;0.71;77.26;102530.66;5012220;28;20022;-54
2023/01/21 08:45:43;;;;;;;39.05;16.98;;;;;;;0.72;76.90;102535.88;5011977;28;20021;-54
2023/01/21 08:48:09;;;;;;;35.20;16.13;;;;;;;0.69;76.85;102528.03;5007602;28;20045;-55
2023/01/21 08:50:34;;;;;;;22.85;10.23;;;;;;;0.66;76.94;102534.91;5008815;28;20018;-55
2023/01/21 08:53:00;;;;;;;32.30;14.50;;;;;;;0.65;76.72;102533.19;5007492;28;20121;-57
2023/01/21 08:55:25;;;;;;;34.50;15.93;;;;;;;0.63;76.83;102538.31;5009661;28;20100;-57
2023/01/21 08:57:53;;;;;;;35.75;14.63;;;;;;;0.66;76.56;102529.75;5008811;28;20026;-54
2023/01/21 09:00:19;;;;;;;32.60;14.18;;;;;;;0.68;76.86;102533.22;5010583;28;20060;-54
2023/01/21 09:02:45;;;;;;;35.03;15.70;;;;;;;0.66;76.67;102524.56;5007679;28;20109;-55
2023/01/21 09:05:11;;;;;;;31.35;13.48;;;;;;;0.72;76.81;102541.03;5009249;28;20104;-54
2023/01/21 09:07:36;;;;;;;24.85;10.38;;;;;;;0.76;76.41;102531.56;5011290;28;20025;-55
2023/01/21 09:10:03;;;;;;;27.08;12.88;;;;;;;0.79;76.20;102536.81;5011455;28;20104;-58
2023/01/21 09:12:28;;;;;;;27.35;11.98;;;;;;;0.84;76.43;102535.13;5011773;28;20022;-57
2023/01/21 09:14:54;;;;;;;26.77;11.35;;;;;;;0.89;76.43;102538.66;5004823;28;20060;-54
2023/01/21 09:17:20;;;;;;;29.58;12.57;;;;;;;0.96;76.38;102534.41;5008114;28;20033;-56
2023/01/21 09:19:45;;;;;;;25.17;11.60;;;;;;;1.01;76.10;102537.03;5009116;28;20026;-57
2023/01/21 09:22:12;;;;;;;18.88;9.68;;;;;;;1.07;76.20;102542.31;5012979;28;20092;-54
2023/01/21 09:24:38;;;;;;;27.73;12.90;;;;;;;1.10;76.11;102531.97;5004470;28;20552;-56
2023/01/21 09:27:05;;;;;;;31.63;12.63;;;;;;;1.16;75.89;102541.53;5005221;28;20030;-57
2023/01/21 09:29:30;;;;;;;25.15;10.02;;;;;;;1.21;75.97;102540.72;5002142;28;20053;-55
2023/01/21 09:31:56;;;;;;;31.88;11.07;;;;;;;1.27;76.40;102539.06;5004983;28;20030;-57
2023/01/21 09:34:21;;;;;;;26.20;11.35;;;;;;;1.40;76.07;102543.50;5006200;28;20038;-56
2023/01/21 09:36:47;;;;;;;22.73;9.27;;;;;;;1.49;76.04;102543.59;5010992;28;20033;-54
2023/01/21 09:39:12;;;;;;;22.00;11.27;;;;;;;1.59;76.12;102538.50;5009497;28;20101;-58
2023/01/21 09:41:44;;;;;;;26.50;11.07;;;;;;;1.66;75.99;102548.06;5009804;28;20025;-57
2023/01/21 09:44:28;;;;;;;;;;;;;;;1.65;76.31;102541.13;5014634;28;20113;-60
2023/01/21 09:47:07;;;;;;;20.35;9.90;;;;;;;1.79;75.82;102538.66;5002114;28;20278;-55
2023/01/21 09:49:40;;;;;;;26.90;11.95;;;;;;;1.82;75.84;102536.94;5010501;28;20045;-57
2023/01/21 09:52:37;;;;;;;20.42;10.88;;;;;;;1.89;75.54;102540.44;5011678;28;20604;-56
2023/01/21 09:55:05;;;;;;;25.25;10.48;;;;;;;1.94;75.38;102530.97;5007716;28;20048;-56
2023/01/21 09:57:54;;;;;;;21.70;11.13;;;;;;;2.02;75.35;102530.16;5006478;28;20030;-55
2023/01/21 10:00:49;;;;;;;19.13;9.68;;;;;;;2.08;75.08;102530.19;5006751;28;20108;-55
2023/01/21 10:03:40;;;;;;;27.02;10.77;;;;;;;2.18;74.94;102531.13;4982581;28;20038;-55
2023/01/21 10:06:44;;;;;;;18.40;9.02;;;;;;;2.23;74.69;102519.91;5006669;28;20420;-58
2023/01/21 10:09:20;;;;;;;22.50;11.45;;;;;;;2.30;74.22;102518.22;5002609;28;20136;-58
2023/01/21 10:12:14;;;;;;;23.90;10.60;;;;;;;2.33;74.51;102531.22;4999323;28;20037;-56
2023/01/21 10:15:09;;;;;;;22.27;11.23;;;;;;;2.33;74.52;102513.03;5004379;28;20084;-55
2023/01/21 10:17:46;;;;;;;16.63;9.80;;;;;;;2.33;74.47;102517.34;5005781;28;20084;-55
2023/01/21 10:20:18;;;;;;;24.20;10.82;;;;;;;2.33;74.35;102505.25;5003934;28;20025;-57
2023/01/21 10:22:50;;;;;;;19.20;10.35;;;;;;;2.34;74.61;102501.78;5006703;28;20036;-56
2023/01/21 10:25:26;;;;;;;25.05;11.57;;;;;;;2.38;74.72;102502.66;5003234;28;20032;-54
2023/01/21 10:27:55;;;;;;;20.15;9.93;;;;;;;2.44;74.54;102510.47;4997627;28;20101;-54
2023/01/21 10:30:25;;;;;;;24.33;10.43;;;;;;;2.52;74.30;102505.31;5000905;28;20033;-56
2023/01/21 10:32:52;;;;;;;23.08;10.63;;;;;;;2.56;74.39;102507.06;5003726;28;20040;-56
2023/01/21 10:35:30;;;;;;;22.88;8.88;;;;;;;2.55;74.32;102511.41;5000512;28;20121;-62
2023/01/21 10:38:05;;;;;;;20.65;10.40;;;;;;;2.57;74.31;102498.41;5002235;28;20038;-58
2023/01/21 10:40:44;;;;;;;17.17;9.65;;;;;;;2.63;73.93;102511.44;5000617;28;20113;-58
2023/01/21 10:43:40;;;;;;;20.40;10.52;;;;;;;2.63;74.21;102493.25;5001384;28;20091;-57
2023/01/21 10:46:23;;;;;;;21.20;9.13;;;;;;;2.61;73.83;102502.75;5005229;28;20033;-58
2023/01/21 10:49:07;;;;;;;19.73;9.65;;;;;;;2.64;73.96;102499.28;4998547;28;20497;-59
2023/01/21 10:51:43;;;;;;;8.25;4.82;;;;;;;2.58;73.73;102500.16;5006816;28;20026;-59
2023/01/21 10:54:13;;;;;;;14.27;7.20;;;;;;;2.62;73.94;102496.69;5004879;28;20048;-57
2023/01/21 10:56:54;;;;;;;20.33;9.38;;;;;;;2.66;73.63;102501.03;5004456;28;20052;-61
2023/01/21 10:59:24;;;;;;;17.70;9.05;;;;;;;2.71;73.94;102488.06;4998589;28;20049;-56
2023/01/21 11:02:01;;;;;;;19.25;9.02;;;;;;;2.74;73.72;102481.13;5004159;28;20060;-58
2023/01/21 11:04:27;;;;;;;20.50;9.38;;;;;;;2.78;73.61;102481.16;5000672;28;20105;-60
2023/01/21 11:07:02;;;;;;;15.82;7.82;;;;;;;2.82;73.36;102464.69;4999473;28;20064;-60
2023/01/21 11:09:31;;;;;;;16.88;9.02;;;;;;;2.84;72.91;102452.56;4999680;28;20018;-56
2023/01/21 11:11:57;;;;;;;12.85;7.07;;;;;;;2.89;73.09;102458.66;5003763;28;20030;-57
2023/01/21 11:14:26;;;;;;;17.27;7.93;;;;;;;2.93;72.90;102455.19;5005466;28;20095;-57
2023/01/21 11:16:52;;;;;;;11.98;5.65;;;;;;;2.89;72.28;102466.44;5005365;28;20026;-57
2023/01/21 11:19:23;;;;;;;14.98;7.90;;;;;;;2.98;72.77;102482.06;4998446;28;20127;-59
2023/01/21 11:21:59;;;;;;;15.68;5.97;;;;;;;3.02;72.28;102478.59;5003375;28;20461;-57
2023/01/21 11:24:26;;;;;;;16.77;6.68;;;;;;;3.09;72.32;102469.06;5000991;28;20121;-56
2023/01/21 11:26:57;;;;;;;14.10;7.20;;;;;;;3.12;72.06;102460.41;5009882;28;20037;-60
2023/01/21 11:29:24;;;;;;;20.58;7.63;;;;;;;3.12;71.95;102450.00;5002762;28;20037;-57
2023/01/21 11:32:01;;;;;;;16.35;7.00;;;;;;;3.13;71.52;102446.53;5009725;28;20695;-58